createdAt,value
2023-03-06T00:00:47.869Z,23.63
2023-03-06T00:03:14.835Z,24.48
2023-03-06T00:05:42.163Z,24.77
2023-03-06T00:08:08.680Z,24.45
2023-03-06T00:10:35.209Z,24.15
2023-03-06T00:13:04.888Z,23.23
2023-03-06T00:15:31.846Z,29.45
2023-03-06T00:17:58.418Z,29.13
2023-03-06T00:20:25.830Z,23.85
2023-03-06T00:22:52.264Z,23.15
2023-03-06T00:25:20.809Z,22.85
2023-03-06T00:27:49.290Z,23.35
2023-03-06T00:30:20.316Z,22.75
2023-03-06T00:32:47.200Z,24.55
2023-03-06T00:35:14.737Z,23.85
2023-03-06T00:37:42.938Z,22.08
2023-03-06T00:40:14.651Z,22.67
2023-03-06T00:42:41.270Z,23.40
2023-03-06T00:45:08.668Z,22.17
2023-03-06T00:47:35.269Z,22.98
2023-03-06T00:50:01.687Z,21.17
2023-03-06T00:52:28.188Z,20.83
2023-03-06T00:54:54.623Z,21.95
2023-03-06T00:57:21.332Z,20.23
2023-03-06T00:59:47.830Z,20.88
2023-03-06T01:02:14.742Z,20.23
2023-03-06T01:04:41.429Z,20.38
2023-03-06T01:07:08.334Z,20.67
2023-03-06T01:09:34.756Z,21.13
2023-03-06T01:12:01.190Z,19.77
2023-03-06T01:14:28.103Z,21.00
2023-03-06T01:16:54.556Z,21.95
2023-03-06T01:19:21.085Z,19.58
2023-03-06T01:21:47.587Z,20.40
2023-03-06T01:24:14.234Z,19.75
2023-03-06T01:26:40.646Z,19.98
2023-03-06T01:29:07.083Z,20.27
2023-03-06T01:31:33.648Z,19.75
2023-03-06T01:34:00.243Z,20.77
2023-03-06T01:36:26.649Z,20.67
2023-03-06T01:38:53.119Z,21.08
2023-03-06T01:41:21.397Z,20.30
2023-03-06T01:43:48.988Z,19.30
2023-03-06T01:46:44.874Z,19.48
2023-03-06T01:49:16.869Z,19.02
2023-03-06T01:51:49.233Z,19.33
2023-03-06T01:54:29.651Z,19.95
2023-03-06T01:57:02.233Z,19.98
2023-03-06T01:59:29.247Z,20.27
2023-03-06T02:01:57.186Z,20.08
2023-03-06T02:04:24.456Z,14.52
2023-03-06T02:06:51.156Z,20.17
2023-03-06T02:09:17.723Z,20.45
2023-03-06T02:11:46.216Z,20.58
2023-03-06T02:14:15.796Z,20.13
2023-03-06T02:16:44.395Z,20.33
2023-03-06T02:19:29.337Z,20.08
2023-03-06T02:21:55.909Z,21.15
2023-03-06T02:24:48.305Z,19.63
2023-03-06T02:27:15.853Z,19.30
2023-03-06T02:29:45.496Z,20.90
2023-03-06T02:32:12.004Z,20.30
2023-03-06T02:34:38.471Z,19.88
2023-03-06T02:37:09.791Z,21.60
2023-03-06T02:39:41.226Z,20.55
2023-03-06T02:42:07.704Z,17.85
2023-03-06T02:44:35.872Z,20.60
2023-03-06T02:47:02.723Z,20.45
2023-03-06T02:49:29.145Z,21.05
2023-03-06T02:51:55.520Z,19.83
2023-03-06T02:54:21.914Z,20.23
2023-03-06T02:56:48.555Z,19.85
2023-03-06T02:59:14.984Z,21.58
2023-03-06T03:01:41.497Z,20.27
2023-03-06T03:04:08.544Z,21.50
2023-03-06T03:06:35.003Z,20.73
2023-03-06T03:09:01.454Z,21.52
2023-03-06T03:11:27.930Z,22.35
2023-03-06T03:13:54.455Z,21.83
2023-03-06T03:16:21.057Z,22.00
2023-03-06T03:18:53.856Z,21.60
2023-03-06T03:21:20.262Z,22.15
2023-03-06T03:23:46.692Z,21.35
2023-03-06T03:26:16.365Z,22.08
2023-03-06T03:28:43.183Z,20.48
2023-03-06T03:31:11.074Z,18.38
2023-03-06T03:33:37.818Z,17.25
2023-03-06T03:36:06.765Z,18.40
2023-03-06T03:38:34.274Z,20.13
2023-03-06T03:41:01.669Z,17.65
2023-03-06T03:43:28.138Z,16.63
2023-03-06T03:45:54.832Z,18.10
2023-03-06T03:48:21.505Z,20.33
2023-03-06T03:50:47.997Z,18.60
2023-03-06T03:53:14.568Z,20.60
2023-03-06T03:55:41.031Z,20.05
2023-03-06T03:58:07.438Z,20.13
2023-03-06T04:00:33.851Z,19.70
2023-03-06T04:03:00.550Z,20.15
2023-03-06T04:05:27.119Z,20.70
2023-03-06T04:07:53.764Z,21.02
2023-03-06T04:10:20.309Z,17.73
2023-03-06T04:12:46.715Z,19.83
2023-03-06T04:15:13.165Z,18.92
2023-03-06T04:17:39.584Z,18.98
2023-03-06T04:20:06.644Z,18.75
2023-03-06T04:22:33.063Z,19.63
2023-03-06T04:24:59.444Z,19.42
2023-03-06T04:27:25.874Z,18.60
2023-03-06T04:29:56.195Z,19.50
2023-03-06T04:32:23.842Z,19.88
2023-03-06T04:34:50.549Z,19.75
2023-03-06T04:37:20.892Z,18.27
2023-03-06T04:39:47.636Z,19.60
2023-03-06T04:42:14.605Z,17.73
2023-03-06T04:44:41.146Z,19.00
2023-03-06T04:47:07.700Z,18.05
2023-03-06T04:49:34.403Z,17.48
2023-03-06T04:52:00.853Z,18.10
2023-03-06T04:54:27.278Z,19.73
2023-03-06T04:56:53.683Z,17.42
2023-03-06T04:59:20.705Z,17.60
2023-03-06T05:01:47.426Z,18.35
2023-03-06T05:04:15.201Z,17.65
2023-03-06T05:06:41.732Z,17.63
2023-03-06T05:09:08.254Z,16.80
2023-03-06T05:11:34.779Z,17.30
2023-03-06T05:14:01.213Z,16.30
2023-03-06T05:16:27.695Z,17.40
2023-03-06T05:18:54.233Z,35.10
2023-03-06T05:21:20.795Z,54.80
2023-03-06T05:23:47.581Z,61.00
2023-03-06T05:26:15.998Z,30.08
2023-03-06T05:28:43.302Z,19.63
2023-03-06T05:31:09.844Z,18.73
2023-03-06T05:33:37.063Z,18.80
2023-03-06T05:36:04.109Z,19.27
2023-03-06T05:38:30.567Z,19.15
2023-03-06T05:40:57.005Z,18.52
2023-03-06T05:43:23.651Z,18.75
2023-03-06T05:45:53.130Z,16.70
2023-03-06T05:48:19.591Z,19.70
2023-03-06T05:50:45.965Z,19.92
2023-03-06T05:53:13.122Z,19.92
2023-03-06T05:55:39.632Z,20.80
2023-03-06T05:58:06.078Z,22.08
2023-03-06T06:00:32.501Z,20.35
2023-03-06T06:03:01.962Z,20.38
2023-03-06T06:05:28.913Z,20.35
2023-03-06T06:07:55.327Z,21.73
2023-03-06T06:10:21.831Z,21.40
2023-03-06T06:12:48.299Z,20.65
2023-03-06T06:15:15.401Z,21.52
2023-03-06T06:17:41.784Z,20.55
2023-03-06T06:20:09.030Z,21.02
2023-03-06T06:22:37.847Z,20.83
2023-03-06T06:25:05.860Z,19.60
2023-03-06T06:27:32.424Z,19.73
2023-03-06T06:29:58.780Z,17.90
2023-03-06T06:32:25.316Z,19.08
2023-03-06T06:34:51.865Z,19.35
2023-03-06T06:37:18.334Z,19.27
2023-03-06T06:39:44.881Z,18.55
2023-03-06T06:42:29.427Z,23.20
2023-03-06T06:44:56.912Z,21.52
2023-03-06T06:47:25.191Z,20.15
2023-03-06T06:49:53.740Z,21.60
2023-03-06T06:52:20.467Z,20.80
2023-03-06T06:54:47.077Z,23.35
2023-03-06T06:57:14.817Z,26.10
2023-03-06T06:59:41.829Z,21.38
2023-03-06T07:02:10.170Z,19.60
2023-03-06T07:04:36.603Z,20.05
2023-03-06T07:07:03.541Z,21.02
2023-03-06T07:09:31.423Z,21.38
2023-03-06T07:11:58.205Z,20.97
2023-03-06T07:14:24.837Z,20.98
2023-03-06T07:16:51.310Z,22.08
2023-03-06T07:19:18.272Z,25.63
2023-03-06T07:21:45.035Z,28.42
2023-03-06T07:24:12.809Z,22.10
2023-03-06T07:26:39.317Z,21.33
2023-03-06T07:29:05.823Z,21.00
2023-03-06T07:31:32.388Z,19.55
2023-03-06T07:33:58.925Z,20.30
2023-03-06T07:36:25.387Z,19.75
2023-03-06T07:38:51.848Z,20.77
2023-03-06T07:41:22.150Z,19.63
2023-03-06T07:43:49.740Z,17.73
2023-03-06T07:46:16.279Z,19.58
2023-03-06T07:48:43.188Z,19.73
2023-03-06T07:51:15.956Z,19.98
2023-03-06T07:53:42.988Z,23.90
2023-03-06T07:56:11.118Z,20.55
2023-03-06T07:58:39.966Z,21.13
2023-03-06T08:01:08.975Z,21.67
2023-03-06T08:03:35.599Z,22.63
2023-03-06T08:06:10.126Z,23.60
2023-03-06T08:08:39.294Z,22.13
2023-03-06T08:11:07.402Z,22.50
2023-03-06T08:13:34.117Z,23.42
2023-03-06T08:16:00.607Z,22.98
2023-03-06T08:18:28.646Z,22.98
2023-03-06T08:21:10.113Z,16.40
2023-03-06T08:23:37.420Z,24.17
2023-03-06T08:26:06.723Z,22.70
2023-03-06T08:28:33.463Z,22.02
2023-03-06T08:31:11.566Z,23.85
2023-03-06T08:33:39.194Z,24.15
2023-03-06T08:36:05.753Z,23.00
2023-03-06T08:38:32.191Z,23.00
2023-03-06T08:40:58.617Z,22.17
2023-03-06T08:43:25.544Z,23.83
2023-03-06T08:45:57.331Z,22.52
2023-03-06T08:48:24.043Z,24.20
2023-03-06T08:50:50.766Z,24.02
2023-03-06T08:53:17.612Z,24.00
2023-03-06T08:55:44.816Z,23.75
2023-03-06T08:58:11.480Z,24.17
2023-03-06T09:00:38.578Z,25.85
2023-03-06T09:03:05.734Z,25.33
2023-03-06T09:05:32.404Z,27.75
2023-03-06T09:07:58.855Z,26.52
2023-03-06T09:10:26.805Z,27.15
2023-03-06T09:12:55.122Z,25.65
2023-03-06T09:15:23.400Z,25.88
2023-03-06T09:17:51.308Z,26.33
2023-03-06T09:20:19.084Z,25.23
2023-03-06T09:22:45.870Z,26.77
2023-03-06T09:25:14.325Z,25.98
2023-03-06T09:27:41.151Z,26.55
2023-03-06T09:30:09.004Z,24.10
2023-03-06T09:32:35.707Z,26.20
2023-03-06T09:35:02.133Z,24.10
2023-03-06T09:37:28.654Z,25.95
2023-03-06T09:39:55.405Z,24.65
2023-03-06T09:42:23.772Z,25.20
2023-03-06T09:45:00.732Z,25.05
2023-03-06T09:47:49.114Z,25.63
2023-03-06T09:50:35.187Z,24.35
2023-03-06T09:53:31.331Z,24.75
2023-03-06T09:56:11.067Z,25.75
2023-03-06T09:58:49.921Z,27.15
2023-03-06T10:01:22.052Z,25.98
2023-03-06T10:04:19.356Z,26.95
2023-03-06T10:06:53.279Z,27.90
2023-03-06T10:09:27.976Z,27.27
2023-03-06T10:12:13.315Z,27.40
2023-03-06T10:14:52.854Z,27.50
2023-03-06T10:17:22.432Z,27.95
2023-03-06T10:19:49.779Z,27.02
2023-03-06T10:22:25.871Z,28.80
2023-03-06T10:25:06.879Z,28.73
2023-03-06T10:27:45.332Z,27.42
2023-03-06T10:30:46.201Z,27.88
2023-03-06T10:33:21.783Z,27.20
2023-03-06T10:35:50.768Z,28.17
2023-03-06T10:38:26.131Z,29.15
2023-03-06T10:41:10.882Z,28.75
2023-03-06T10:44:05.385Z,29.25
2023-03-06T10:46:33.270Z,29.08
2023-03-06T10:49:03.076Z,28.73
2023-03-06T10:51:30.784Z,30.38
2023-03-06T10:54:18.982Z,30.20
2023-03-06T10:56:47.086Z,28.95
2023-03-06T10:59:30.923Z,27.88
2023-03-06T11:02:14.470Z,28.50
2023-03-06T11:04:44.952Z,27.17
2023-03-06T11:07:27.265Z,26.52
2023-03-06T11:10:00.032Z,26.45
2023-03-06T11:12:32.262Z,26.50
2023-03-06T11:15:14.596Z,26.42
2023-03-06T11:18:10.123Z,26.67
2023-03-06T11:20:51.360Z,27.00
2023-03-06T11:23:39.020Z,27.13
2023-03-06T11:26:17.491Z,27.60
2023-03-06T11:29:01.890Z,27.17
2023-03-06T11:31:32.264Z,25.67
2023-03-06T11:34:07.510Z,24.77
2023-03-06T11:36:58.603Z,26.77
2023-03-06T11:39:48.052Z,26.55
2023-03-06T11:42:23.986Z,25.10
2023-03-06T11:45:18.162Z,22.90
2023-03-06T11:48:08.538Z,21.27
2023-03-06T11:50:38.619Z,22.52
2023-03-06T11:53:10.476Z,21.40
2023-03-06T11:56:14.578Z,22.42
2023-03-06T11:59:00.139Z,22.02
2023-03-06T12:02:05.579Z,22.45
2023-03-06T12:04:50.992Z,22.80
2023-03-06T12:07:31.265Z,20.48
2023-03-06T12:10:27.772Z,21.52
2023-03-06T12:13:04.234Z,21.45
2023-03-06T12:15:55.540Z,21.27
2023-03-06T12:18:51.318Z,21.23
2023-03-06T12:21:59.300Z,22.70
2023-03-06T12:24:53.984Z,20.17
2023-03-06T12:27:36.398Z,21.15
2023-03-06T12:30:33.724Z,21.85
2023-03-06T12:33:38.899Z,21.40
2023-03-06T12:36:24.256Z,21.10
2023-03-06T12:39:00.604Z,21.30
2023-03-06T12:41:51.800Z,20.63
2023-03-06T12:44:25.057Z,20.63
2023-03-06T12:46:59.115Z,19.42
2023-03-06T12:49:33.148Z,19.90
2023-03-06T12:52:02.109Z,20.52
2023-03-06T12:54:33.463Z,19.63
2023-03-06T12:57:00.889Z,20.17
2023-03-06T12:59:38.078Z,20.00
2023-03-06T13:02:32.550Z,19.38
2023-03-06T13:05:00.257Z,19.63
2023-03-06T13:07:46.451Z,19.63
2023-03-06T13:10:23.114Z,18.70
2023-03-06T13:12:56.132Z,20.95
2023-03-06T13:16:04.897Z,20.08
2023-03-06T13:18:31.253Z,20.48
2023-03-06T13:20:58.113Z,20.88
2023-03-06T13:23:33.984Z,20.20
2023-03-06T13:26:01.984Z,19.80
2023-03-06T13:28:50.374Z,18.38
2023-03-06T13:33:54.801Z,19.60
2023-03-06T13:36:30.661Z,20.92
2023-03-06T13:39:07.457Z,23.15
2023-03-06T13:41:45.369Z,19.48
2023-03-06T13:44:40.725Z,21.48
2023-03-06T13:47:18.201Z,18.60
2023-03-06T13:49:48.184Z,19.85
2023-03-06T13:52:33.236Z,17.90
2023-03-06T13:55:17.848Z,18.50
2023-03-06T13:58:19.960Z,19.65
2023-03-06T14:01:20.649Z,18.23
2023-03-06T14:04:26.113Z,17.35
2023-03-06T14:07:04.901Z,18.85
2023-03-06T14:09:41.652Z,19.23
2023-03-06T14:12:20.307Z,18.88
2023-03-06T14:17:31.705Z,18.70
2023-03-06T14:20:03.857Z,18.13
2023-03-06T14:22:30.299Z,18.15
2023-03-06T14:25:00.652Z,17.20
2023-03-06T14:27:41.146Z,19.42
2023-03-06T14:30:25.370Z,19.10
2023-03-06T14:32:54.606Z,18.95
2023-03-06T14:35:24.405Z,18.15
2023-03-06T14:37:55.499Z,18.90
2023-03-06T14:40:29.093Z,18.25
2023-03-06T14:43:17.430Z,19.42
2023-03-06T14:45:54.352Z,19.02
2023-03-06T14:48:21.266Z,17.77
2023-03-06T14:50:53.323Z,18.45
2023-03-06T14:53:26.786Z,17.33
2023-03-06T14:55:57.809Z,17.38
2023-03-06T14:58:39.557Z,18.35
2023-03-06T15:01:11.477Z,19.08
2023-03-06T15:03:50.524Z,18.83
2023-03-06T15:06:21.316Z,17.80
2023-03-06T15:08:52.170Z,17.17
2023-03-06T15:11:18.657Z,17.88
2023-03-06T15:14:00.552Z,17.17
2023-03-06T15:16:30.176Z,17.65
2023-03-06T15:19:02.514Z,18.85
2023-03-06T15:21:38.738Z,17.23
2023-03-06T15:24:36.873Z,16.92
2023-03-06T15:27:05.945Z,17.67
2023-03-06T15:29:33.610Z,18.00
2023-03-06T15:32:29.447Z,18.52
2023-03-06T15:35:26.686Z,18.40
2023-03-06T15:37:53.480Z,17.98
2023-03-06T15:40:22.271Z,17.23
2023-03-06T15:42:52.178Z,16.98
2023-03-06T15:45:23.178Z,18.75
2023-03-06T15:47:51.400Z,18.23
2023-03-06T15:50:29.077Z,18.38
2023-03-06T15:52:55.700Z,17.63
2023-03-06T15:55:25.948Z,17.88
2023-03-06T15:57:59.517Z,18.83
2023-03-06T16:00:44.598Z,16.63
2023-03-06T16:03:11.722Z,18.33
2023-03-06T16:05:38.677Z,18.20
2023-03-06T16:08:06.097Z,17.63
2023-03-06T16:10:37.862Z,19.45
2023-03-06T16:13:08.477Z,18.70
2023-03-06T16:15:51.405Z,18.00
2023-03-06T16:18:18.396Z,17.77
2023-03-06T16:20:44.987Z,19.25
2023-03-06T16:23:11.701Z,20.83
2023-03-06T16:25:40.569Z,18.55
2023-03-06T16:28:17.545Z,19.55
2023-03-06T16:30:45.872Z,17.90
2023-03-06T16:33:14.947Z,18.70
2023-03-06T16:35:44.773Z,18.23
2023-03-06T16:38:11.358Z,18.08
2023-03-06T16:40:43.509Z,19.63
2023-03-06T16:43:10.847Z,20.27
2023-03-06T16:45:40.172Z,18.77
2023-03-06T16:48:06.988Z,18.95
2023-03-06T16:50:39.122Z,19.58
2023-03-06T16:53:06.093Z,19.23
2023-03-06T16:55:32.888Z,19.88
2023-03-06T16:57:59.734Z,19.25
2023-03-06T17:00:31.133Z,18.65
2023-03-06T17:02:57.791Z,18.88
2023-03-06T17:05:24.807Z,17.67
2023-03-06T17:07:51.885Z,18.02
2023-03-06T17:10:20.052Z,18.30
2023-03-06T17:12:46.904Z,17.95
2023-03-06T17:15:14.443Z,19.63
2023-03-06T17:17:40.892Z,20.08
2023-03-06T17:20:08.240Z,19.98
2023-03-06T17:22:36.044Z,19.38
2023-03-06T17:25:05.048Z,19.90
2023-03-06T17:27:31.518Z,20.10
2023-03-06T17:29:58.112Z,21.25
2023-03-06T17:32:25.702Z,19.10
2023-03-06T17:34:52.498Z,20.83
2023-03-06T17:37:19.328Z,21.05
2023-03-06T17:39:45.899Z,19.92
2023-03-06T17:42:13.113Z,19.35
2023-03-06T17:44:39.631Z,17.88
2023-03-06T17:47:06.274Z,20.85
2023-03-06T17:49:32.960Z,18.40
2023-03-06T17:52:00.871Z,18.42
2023-03-06T17:54:29.182Z,18.35
2023-03-06T17:56:56.762Z,17.55
2023-03-06T17:59:23.201Z,17.92
2023-03-06T18:01:49.676Z,18.95
2023-03-06T18:04:16.922Z,16.75
2023-03-06T18:06:44.438Z,19.75
2023-03-06T18:09:10.851Z,17.83
2023-03-06T18:11:37.395Z,20.15
2023-03-06T18:14:05.524Z,20.40
2023-03-06T18:16:32.212Z,19.88
2023-03-06T18:18:58.740Z,20.02
2023-03-06T18:21:26.264Z,19.88
2023-03-06T18:23:52.757Z,22.38
2023-03-06T18:26:25.092Z,38.15
2023-03-06T18:28:54.778Z,22.63
2023-03-06T18:31:24.870Z,19.70
2023-03-06T18:33:56.981Z,22.27
2023-03-06T18:36:26.008Z,19.90
2023-03-06T18:38:52.643Z,19.88
2023-03-06T18:41:21.027Z,20.60
2023-03-06T18:43:59.024Z,18.77
2023-03-06T18:46:29.053Z,18.80
2023-03-06T18:48:55.588Z,19.48
2023-03-06T18:51:22.063Z,22.23
2023-03-06T18:53:48.584Z,25.48
2023-03-06T18:56:21.213Z,21.95
2023-03-06T18:58:48.267Z,27.98
2023-03-06T19:01:15.519Z,28.63
2023-03-06T19:03:45.114Z,26.77
2023-03-06T19:06:14.783Z,26.13
2023-03-06T19:08:41.448Z,25.13
2023-03-06T19:11:11.384Z,24.48
2023-03-06T19:13:38.420Z,22.60
2023-03-06T19:16:05.635Z,21.60
2023-03-06T19:18:32.360Z,21.05
2023-03-06T19:21:17.407Z,22.55
2023-03-06T19:23:45.102Z,23.55
2023-03-06T19:26:12.271Z,24.10
2023-03-06T19:28:41.875Z,22.48
2023-03-06T19:31:15.805Z,23.83
2023-03-06T19:33:43.873Z,22.13
2023-03-06T19:36:13.544Z,25.02
2023-03-06T19:38:40.144Z,24.27
2023-03-06T19:41:11.713Z,22.88
2023-03-06T19:43:38.287Z,24.08
2023-03-06T19:46:05.433Z,22.10
2023-03-06T19:48:32.736Z,25.90
2023-03-06T19:51:07.443Z,31.05
2023-03-06T19:53:35.325Z,33.45
2023-03-06T19:56:14.786Z,28.38
2023-03-06T19:58:41.432Z,34.63
2023-03-06T20:01:22.949Z,37.00
2023-03-06T20:03:51.136Z,25.90
2023-03-06T20:06:19.678Z,23.40
2023-03-06T20:08:47.112Z,21.30
2023-03-06T20:11:24.211Z,22.80
2023-03-06T20:13:51.242Z,20.25
2023-03-06T20:16:18.924Z,23.65
2023-03-06T20:18:45.658Z,23.70
2023-03-06T20:21:12.186Z,25.80
2023-03-06T20:23:39.863Z,25.42
2023-03-06T20:26:12.112Z,23.17
2023-03-06T20:28:44.890Z,22.88
2023-03-06T20:31:17.317Z,23.25
2023-03-06T20:33:49.938Z,21.50
2023-03-06T20:36:20.091Z,21.85
2023-03-06T20:38:47.256Z,22.02
2023-03-06T20:41:20.792Z,19.75
2023-03-06T20:43:47.753Z,20.60
2023-03-06T20:46:15.871Z,20.80
2023-03-06T20:48:43.733Z,20.08
2023-03-06T20:51:21.867Z,20.90
2023-03-06T20:53:50.083Z,21.05
2023-03-06T20:56:22.398Z,18.45
2023-03-06T20:58:49.042Z,20.98
2023-03-06T21:01:19.159Z,18.58
2023-03-06T21:03:45.617Z,18.88
2023-03-06T21:06:12.029Z,18.30
2023-03-06T21:08:39.613Z,18.95
2023-03-06T21:11:06.597Z,19.27
2023-03-06T21:13:33.153Z,18.02
2023-03-06T21:15:59.788Z,19.05
2023-03-06T21:18:26.481Z,20.45
2023-03-06T21:20:53.012Z,20.50
2023-03-06T21:23:19.724Z,19.77
2023-03-06T21:25:55.445Z,20.25
2023-03-06T21:28:21.953Z,20.15
2023-03-06T21:30:48.557Z,21.00
2023-03-06T21:33:16.098Z,20.45
2023-03-06T21:35:45.853Z,19.67
2023-03-06T21:38:13.341Z,18.50
2023-03-06T21:40:40.278Z,19.42
2023-03-06T21:43:06.723Z,19.70
2023-03-06T21:45:33.148Z,18.88
2023-03-06T21:48:00.482Z,19.17
2023-03-06T21:50:28.081Z,18.45
2023-03-06T21:52:56.080Z,18.73
2023-03-06T21:55:22.762Z,17.80
2023-03-06T21:57:50.799Z,19.30
2023-03-06T22:00:19.456Z,18.70
2023-03-06T22:05:14.399Z,18.65
2023-03-06T22:07:41.289Z,21.42
2023-03-06T22:10:11.991Z,20.10
2023-03-06T22:12:40.609Z,19.67
2023-03-06T22:15:07.820Z,19.15
2023-03-06T22:17:34.651Z,21.17
2023-03-06T22:20:01.476Z,19.45
2023-03-06T22:22:28.112Z,22.75
2023-03-06T22:24:54.538Z,21.48
2023-03-06T22:27:21.774Z,22.05
2023-03-06T22:29:48.200Z,25.20
2023-03-06T22:32:15.497Z,21.83
2023-03-06T22:34:43.299Z,20.70
2023-03-06T22:37:09.776Z,20.90
2023-03-06T22:39:36.197Z,18.75
2023-03-06T22:42:02.669Z,18.55
2023-03-06T22:44:29.101Z,17.95
2023-03-06T22:46:55.969Z,19.25
2023-03-06T22:49:22.644Z,19.80
2023-03-06T22:51:49.022Z,20.17
2023-03-06T22:54:15.516Z,18.88
2023-03-06T22:56:42.059Z,19.08
2023-03-06T22:59:08.450Z,18.67
2023-03-06T23:01:35.058Z,18.35
2023-03-06T23:04:03.543Z,19.60
2023-03-06T23:06:31.362Z,17.58
2023-03-06T23:09:07.895Z,17.00
2023-03-06T23:11:35.052Z,16.00
2023-03-06T23:14:02.016Z,16.17
2023-03-06T23:16:28.536Z,16.48
2023-03-06T23:18:54.987Z,15.85
2023-03-06T23:21:22.790Z,16.63
2023-03-06T23:23:51.698Z,16.00
2023-03-06T23:26:21.106Z,16.30
2023-03-06T23:28:47.643Z,16.50
2023-03-06T23:31:17.398Z,16.05
2023-03-06T23:33:45.040Z,17.30
2023-03-06T23:36:14.543Z,16.63
2023-03-06T23:38:46.270Z,17.33
2023-03-06T23:41:18.155Z,16.75
2023-03-06T23:43:46.174Z,17.10
2023-03-06T23:46:13.806Z,16.85
2023-03-06T23:48:41.631Z,15.50
2023-03-06T23:51:09.984Z,16.10
2023-03-06T23:53:36.430Z,16.35
2023-03-06T23:56:06.247Z,16.95
2023-03-06T23:58:33.714Z,16.23
